createdAt,value
2023-04-18T10:51:46.655Z,26.6768
2023-04-18T10:52:48.288Z,27.0410
2023-04-18T10:53:50.727Z,27.3123
2023-04-18T10:54:51.564Z,27.5366
2023-04-18T10:55:54.217Z,27.7305
2023-04-18T10:56:54.841Z,27.8946
2023-04-18T10:57:57.577Z,28.0442
2023-04-18T10:58:58.199Z,28.1783
2023-04-18T10:59:59.769Z,28.3274
2023-04-18T11:01:01.646Z,28.4603
2023-04-18T11:02:03.162Z,28.5951
2023-04-18T11:03:05.613Z,28.7687
2023-04-18T11:04:06.405Z,28.9858
2023-04-18T11:05:08.049Z,29.1934
2023-04-18T11:06:09.664Z,29.3502
2023-04-18T11:07:11.407Z,29.4634
2023-04-18T11:08:13.050Z,29.5700
2023-04-18T11:09:14.642Z,29.6698
2023-04-18T11:10:16.202Z,29.7717
2023-04-18T11:11:17.920Z,29.8586
2023-04-18T11:12:19.858Z,29.9194
2023-04-18T11:13:21.857Z,29.8877
2023-04-18T11:14:22.912Z,29.8623
2023-04-18T11:15:24.583Z,29.8216
2023-04-18T11:16:26.300Z,29.7657
2023-04-18T11:17:27.927Z,29.7745
2023-04-18T11:18:29.581Z,29.8280
2023-04-18T11:19:31.206Z,29.9378
2023-04-18T11:20:32.838Z,30.0816
2023-04-18T11:21:34.454Z,30.1997
2023-04-18T11:22:36.831Z,30.3070
2023-04-18T11:23:37.742Z,30.3559
2023-04-18T11:24:39.456Z,30.4078
2023-04-18T11:25:41.003Z,30.4590
2023-04-18T11:26:42.792Z,30.4972
2023-04-18T11:27:44.408Z,30.4532
2023-04-18T11:28:46.035Z,30.3920
2023-04-18T11:29:47.698Z,30.3113
2023-04-18T11:30:49.374Z,30.2193
2023-04-18T11:31:51.038Z,30.1315
2023-04-18T11:32:52.708Z,30.1439
2023-04-18T11:33:54.192Z,30.1630
2023-04-18T11:34:56.775Z,30.1640
2023-04-18T11:35:57.539Z,30.1934
2023-04-18T11:36:59.189Z,30.2343
2023-04-18T11:38:00.871Z,30.2657
2023-04-18T11:39:02.582Z,30.3031
2023-04-18T11:40:04.206Z,30.3548
2023-04-18T11:41:05.785Z,30.4822
2023-04-18T11:42:07.499Z,30.5781
2023-04-18T11:43:09.166Z,30.5828
2023-04-18T11:44:10.776Z,30.4762
2023-04-18T11:45:12.374Z,30.3918
2023-04-18T11:46:14.098Z,30.3181
2023-04-18T11:47:15.665Z,30.2560
2023-04-18T11:48:17.448Z,30.2297
2023-04-18T11:49:19.012Z,30.2242
2023-04-18T11:50:20.634Z,30.2361
2023-04-18T11:51:22.367Z,30.2955
2023-04-18T11:52:23.909Z,30.3320
2023-04-18T11:53:25.620Z,30.3717
2023-04-18T11:54:27.241Z,30.4123
2023-04-18T11:55:28.876Z,30.4651
2023-04-18T11:56:30.499Z,30.5044
2023-04-18T11:57:32.131Z,30.5609
2023-04-18T11:58:33.773Z,30.6272
2023-04-18T11:59:35.494Z,30.7845
2023-04-18T12:00:37.054Z,30.8614
2023-04-18T12:01:38.724Z,30.7899
2023-04-18T12:02:40.494Z,30.6408
2023-04-18T12:03:42.260Z,30.4855
2023-04-18T12:04:44.165Z,30.3602
2023-04-18T12:05:45.594Z,30.2416
2023-04-18T12:06:47.018Z,30.1825
2023-04-18T12:07:48.603Z,30.1860
2023-04-18T12:08:51.207Z,30.2289
2023-04-18T12:09:51.936Z,30.3191
2023-04-18T12:10:54.259Z,30.3768
2023-04-18T12:11:55.204Z,30.4130
2023-04-18T12:12:56.818Z,30.4783
2023-04-18T12:13:58.444Z,30.5187
2023-04-18T12:15:00.292Z,30.5407
2023-04-18T12:16:01.805Z,30.4452
2023-04-18T12:17:03.310Z,30.3867
2023-04-18T12:18:05.810Z,30.3101
2023-04-18T12:19:06.627Z,30.2560
2023-04-18T12:20:08.322Z,30.2540
2023-04-18T12:21:09.933Z,30.2819
2023-04-18T12:22:12.221Z,30.3990
2023-04-18T12:23:13.450Z,30.5851
2023-04-18T12:24:16.626Z,30.6420
2023-04-18T12:25:16.605Z,30.6586
2023-04-18T12:26:18.191Z,30.7250
2023-04-18T12:27:19.858Z,30.8371
2023-04-18T12:28:21.487Z,30.8801
2023-04-18T12:29:23.153Z,30.9415
2023-04-18T12:30:24.846Z,31.0625
2023-04-18T12:31:26.457Z,31.1130
2023-04-18T12:32:28.068Z,31.1956
2023-04-18T12:33:29.729Z,31.2586
2023-04-18T12:34:31.310Z,31.3558
2023-04-18T12:35:33.394Z,31.4564
2023-04-18T12:36:34.636Z,31.4910
2023-04-18T12:37:36.270Z,31.5191
2023-04-18T12:38:37.914Z,31.4394
2023-04-18T12:39:39.590Z,31.2605
2023-04-18T12:40:41.252Z,31.0288
2023-04-18T12:41:42.871Z,30.8949
2023-04-18T12:42:44.494Z,30.7831
2023-04-18T12:43:46.158Z,30.7020
2023-04-18T12:44:48.044Z,30.7334
2023-04-18T12:45:49.460Z,30.8548
2023-04-18T12:46:51.210Z,31.0345
2023-04-18T12:47:52.818Z,31.0916
2023-04-18T12:48:54.363Z,31.0816
2023-04-18T12:49:55.974Z,31.1516
2023-04-18T12:50:57.731Z,31.2058
2023-04-18T12:51:59.274Z,31.2726
2023-04-18T12:53:00.882Z,31.3104
2023-04-18T12:54:02.606Z,31.1611
2023-04-18T12:55:04.204Z,30.9589
2023-04-18T12:56:05.944Z,30.8082
2023-04-18T12:57:07.482Z,30.6553
2023-04-18T12:58:09.197Z,30.5859
2023-04-18T12:59:10.780Z,30.5520
2023-04-18T13:00:12.456Z,30.5602
2023-04-18T13:01:14.247Z,30.5787
2023-04-18T13:02:15.850Z,30.6533
2023-04-18T13:03:17.400Z,30.7601
2023-04-18T13:04:19.236Z,30.9581
2023-04-18T13:05:21.388Z,31.1892
2023-04-18T13:06:22.410Z,31.4702
2023-04-18T13:07:23.927Z,31.7835
2023-04-18T13:08:25.605Z,31.9104
2023-04-18T13:09:27.213Z,32.0690
2023-04-18T13:10:28.891Z,32.0252
2023-04-18T13:11:30.870Z,31.7582
2023-04-18T13:12:32.178Z,31.5181
2023-04-18T13:13:35.604Z,31.2714
2023-04-18T13:14:35.488Z,31.2215
2023-04-18T13:15:37.097Z,31.3412
2023-04-18T13:16:39.762Z,31.4597
2023-04-18T13:17:40.485Z,31.6130
2023-04-18T13:18:42.066Z,31.6881
2023-04-18T13:19:43.716Z,31.7305
2023-04-18T13:20:45.410Z,31.6247
2023-04-18T13:21:49.126Z,31.4004
2023-04-18T13:22:48.775Z,31.1553
2023-04-18T13:23:50.328Z,30.9483
2023-04-18T13:24:51.924Z,30.9045
2023-04-18T13:25:53.597Z,30.9859
2023-04-18T13:26:55.241Z,31.0699
2023-04-18T13:27:57.465Z,31.2011
2023-04-18T13:28:58.524Z,31.3201
2023-04-18T13:30:00.205Z,31.3646
2023-04-18T13:31:01.801Z,31.3143
2023-04-18T13:32:03.593Z,31.2812
2023-04-18T13:33:05.224Z,31.2810
2023-04-18T13:34:06.830Z,31.3069
2023-04-18T13:35:08.424Z,31.3574
2023-04-18T13:36:10.124Z,31.2309
2023-04-18T13:37:11.773Z,31.0547
2023-04-18T13:38:13.415Z,30.9103
2023-04-18T13:39:15.126Z,30.9195
2023-04-18T13:40:16.687Z,31.0056
2023-04-18T13:41:18.291Z,31.0990
2023-04-18T13:42:20.005Z,31.1362
2023-04-18T13:43:21.652Z,31.2422
2023-04-18T13:44:23.271Z,31.3258
2023-04-18T13:45:24.842Z,31.3289
2023-04-18T13:46:26.631Z,31.3546
2023-04-18T13:47:28.395Z,31.3607
2023-04-18T13:48:29.892Z,31.3340
2023-04-18T13:49:31.492Z,31.3005
2023-04-18T13:50:33.166Z,31.2843
2023-04-18T13:51:34.818Z,31.2235
2023-04-18T13:52:36.503Z,31.2683
2023-04-18T13:53:38.108Z,31.3201
2023-04-18T13:54:39.722Z,31.3938
2023-04-18T13:55:41.372Z,31.4480
2023-04-18T13:56:43.044Z,31.3654
2023-04-18T13:57:44.709Z,31.2284
2023-04-18T13:58:46.455Z,31.1596
2023-04-18T13:59:47.961Z,31.1816
2023-04-18T14:00:49.578Z,31.2126
2023-04-18T14:01:51.260Z,31.2295
2023-04-18T14:02:53.576Z,31.2315
2023-04-18T14:03:54.761Z,31.2995
2023-04-18T14:04:56.282Z,31.2740
2023-04-18T14:05:57.856Z,31.2687
2023-04-18T14:06:59.473Z,31.2942
2023-04-18T14:08:01.160Z,31.2868
2023-04-18T14:09:03.758Z,31.2977
2023-04-18T14:10:05.377Z,31.2301
2023-04-18T14:11:06.103Z,31.0955
2023-04-18T14:12:07.889Z,30.9269
2023-04-18T14:13:09.380Z,30.7730
2023-04-18T14:14:11.100Z,30.7098
2023-04-18T14:15:12.740Z,30.7367
2023-04-18T14:16:14.351Z,30.7507
2023-04-18T14:17:15.950Z,30.6987
2023-04-18T14:18:17.640Z,30.6586
2023-04-18T14:19:19.319Z,30.6771
2023-04-18T14:20:21.437Z,30.6500
2023-04-18T14:21:22.494Z,30.5941
2023-04-18T14:22:24.213Z,30.4768
2023-04-18T14:23:25.910Z,30.1548
2023-04-18T14:24:27.521Z,29.6817
2023-04-18T14:25:29.171Z,29.7844
2023-04-18T14:26:30.843Z,29.8906
2023-04-18T14:27:32.421Z,29.9892
2023-04-18T14:28:34.134Z,30.1607
2023-04-18T14:29:36.364Z,30.2392
2023-04-18T14:30:37.456Z,30.3550
2023-04-18T14:31:39.104Z,30.2809
2023-04-18T14:32:40.806Z,30.1457
2023-04-18T14:33:42.317Z,30.1014
2023-04-18T14:34:44.087Z,30.3460
2023-04-18T14:35:45.707Z,30.5820
2023-04-18T14:36:47.278Z,30.6169
2023-04-18T14:37:48.924Z,30.5806
2023-04-18T14:38:50.646Z,30.5483
2023-04-18T14:39:52.300Z,30.5068
2023-04-18T14:40:54.010Z,30.6007
2023-04-18T14:41:55.504Z,31.0228
2023-04-18T14:42:57.204Z,31.4310
2023-04-18T14:43:58.801Z,31.6263
2023-04-18T14:45:00.552Z,31.4998
2023-04-18T14:46:02.174Z,31.3459
2023-04-18T14:47:03.873Z,31.2964
2023-04-18T14:48:06.333Z,31.2237
2023-04-18T14:49:07.061Z,31.0939
2023-04-18T14:50:08.812Z,30.9345
2023-04-18T14:51:10.416Z,30.8527
2023-04-18T14:52:12.068Z,30.7691
2023-04-18T14:53:13.656Z,30.6683
2023-04-18T14:54:15.356Z,30.6011
2023-04-18T14:55:16.991Z,30.5742
2023-04-18T14:56:18.739Z,30.5594
2023-04-18T14:57:20.240Z,30.5699
2023-04-18T14:58:21.920Z,30.5795
2023-04-18T14:59:23.535Z,30.3826
2023-04-18T15:00:25.205Z,30.3834
2023-04-18T15:01:26.921Z,30.3267
2023-04-18T15:02:28.578Z,30.2710
2023-04-18T15:03:31.043Z,30.3351
2023-04-18T15:04:31.906Z,30.3573
2023-04-18T15:05:33.501Z,30.3834
2023-04-18T15:06:35.527Z,30.4202
2023-04-18T15:07:36.737Z,30.4528
2023-04-18T15:08:38.388Z,30.4050
2023-04-18T15:09:40.109Z,30.3343
2023-04-18T15:10:41.720Z,30.2659
2023-04-18T15:11:43.610Z,30.1774
2023-04-18T15:12:44.963Z,30.1769
2023-04-18T15:13:46.681Z,30.2075
2023-04-18T15:14:48.248Z,30.2201
2023-04-18T15:15:50.482Z,30.2464
2023-04-18T15:16:51.687Z,30.2877
2023-04-18T15:17:53.314Z,30.3815
2023-04-18T15:18:54.898Z,30.4335
2023-04-18T15:19:56.495Z,30.4058
2023-04-18T15:20:58.214Z,30.2669
2023-04-18T15:22:00.556Z,30.1720
2023-04-18T15:23:01.493Z,30.1233
2023-04-18T15:24:03.099Z,30.1075
2023-04-18T15:25:04.821Z,30.1034
2023-04-18T15:26:06.485Z,30.1044
2023-04-18T15:27:08.116Z,30.1143
2023-04-18T15:28:09.713Z,30.1207
2023-04-18T15:29:11.385Z,30.1463
2023-04-18T15:30:13.061Z,30.1494
2023-04-18T15:31:14.774Z,30.1365
2023-04-18T15:32:16.446Z,30.1044
2023-04-18T15:33:17.998Z,29.9407
2023-04-18T15:34:19.675Z,29.7487
2023-04-18T15:35:21.900Z,29.6455
2023-04-18T15:36:23.037Z,29.5786
2023-04-18T15:37:24.659Z,29.5759
2023-04-18T15:38:26.228Z,29.5691
2023-04-18T15:39:27.831Z,29.5792
2023-04-18T15:40:29.578Z,29.5886
2023-04-18T15:41:31.220Z,29.6252
2023-04-18T15:42:32.966Z,29.6690
2023-04-18T15:43:34.528Z,29.6759
2023-04-18T15:44:36.176Z,29.6905
2023-04-18T15:45:37.858Z,29.7082
2023-04-18T15:46:41.410Z,29.7220
2023-04-18T15:47:42.101Z,29.7361
2023-04-18T15:48:42.776Z,29.7581
2023-04-18T15:49:44.473Z,29.7635
2023-04-18T15:50:46.041Z,29.7591
2023-04-18T15:51:47.798Z,29.7657
2023-04-18T15:52:49.411Z,29.7813
2023-04-18T15:53:51.008Z,29.7517
2023-04-18T15:54:52.604Z,29.7517
2023-04-18T15:55:54.363Z,29.7548
2023-04-18T15:56:55.925Z,29.7943
2023-04-18T15:57:57.583Z,29.8335
2023-04-18T15:58:59.266Z,29.8719
2023-04-18T16:00:00.941Z,29.8292
2023-04-18T16:01:02.562Z,29.7554
2023-04-18T16:02:05.081Z,29.6636
2023-04-18T16:03:05.957Z,29.6154
2023-04-18T16:04:07.619Z,29.5811
2023-04-18T16:05:09.908Z,29.5646
2023-04-18T16:06:10.778Z,29.5439
2023-04-18T16:07:12.444Z,29.5194
2023-04-18T16:08:14.066Z,29.5026
2023-04-18T16:09:15.709Z,29.4835
2023-04-18T16:10:17.347Z,29.4560
2023-04-18T16:11:18.970Z,29.4399
2023-04-18T16:12:20.748Z,29.4278
2023-04-18T16:13:22.284Z,29.4317
2023-04-18T16:14:23.947Z,29.4463
2023-04-18T16:15:25.528Z,29.4545
2023-04-18T16:16:27.211Z,29.4726
2023-04-18T16:17:28.997Z,29.4898
2023-04-18T16:18:30.534Z,29.5028
2023-04-18T16:19:32.943Z,29.5217
2023-04-18T16:20:33.833Z,29.5459
2023-04-18T16:21:35.416Z,29.5591
2023-04-18T16:22:37.104Z,29.5671
2023-04-18T16:23:38.712Z,29.5833
2023-04-18T16:24:42.011Z,29.6125
2023-04-18T16:25:41.998Z,29.6343
2023-04-18T16:26:43.596Z,29.6043
2023-04-18T16:27:45.298Z,29.5546
2023-04-18T16:28:46.874Z,29.5057
2023-04-18T16:29:48.502Z,29.4779
2023-04-18T16:30:50.181Z,29.4751
2023-04-18T16:31:52.067Z,29.4781
2023-04-18T16:32:54.159Z,29.4648
2023-04-18T16:33:55.345Z,29.4516
2023-04-18T16:34:57.885Z,29.4282
2023-04-18T16:35:58.509Z,29.4005
2023-04-18T16:37:01.177Z,29.3832
2023-04-18T16:38:03.664Z,29.3763
2023-04-18T16:39:08.189Z,29.3793
2023-04-18T16:40:09.878Z,29.3588
2023-04-18T16:41:11.561Z,29.3418
2023-04-18T16:42:15.653Z,29.3290
2023-04-18T16:43:14.776Z,29.3025
2023-04-18T16:44:16.452Z,29.2939
2023-04-18T16:45:17.962Z,29.2929
2023-04-18T16:46:19.723Z,29.2920
2023-04-18T16:47:21.277Z,29.2877
2023-04-18T16:48:22.983Z,29.2976
2023-04-18T16:49:24.590Z,29.3259
2023-04-18T16:50:26.273Z,29.3701
2023-04-18T16:51:27.885Z,29.4149
2023-04-18T16:52:29.543Z,29.4666
2023-04-18T16:53:31.518Z,29.5149
2023-04-18T16:54:32.836Z,29.5533
2023-04-18T16:55:34.470Z,29.6014
2023-04-18T16:56:36.160Z,29.5724
2023-04-18T16:57:37.834Z,29.5196
2023-04-18T16:58:39.380Z,29.4857
2023-04-18T16:59:40.997Z,29.3594
2023-04-18T17:00:42.653Z,29.2621
2023-04-18T17:01:44.329Z,29.2390
2023-04-18T17:02:46.007Z,29.2577
2023-04-18T17:03:47.704Z,29.2623
2023-04-18T17:04:49.307Z,29.2678
2023-04-18T17:05:50.817Z,29.2623
2023-04-18T17:06:52.552Z,29.2555
2023-04-18T17:07:54.107Z,29.2510
2023-04-18T17:08:55.960Z,29.2483
2023-04-18T17:09:57.484Z,29.2423
2023-04-18T17:10:59.191Z,29.2142
2023-04-18T17:12:00.785Z,29.2127
2023-04-18T17:13:02.694Z,29.2006
2023-04-18T17:14:04.145Z,29.1750
2023-04-18T17:15:06.026Z,29.1711
2023-04-18T17:16:07.429Z,29.1620
2023-04-18T17:17:09.051Z,29.1337
2023-04-18T17:18:10.796Z,29.1057
2023-04-18T17:19:12.526Z,29.0860
2023-04-18T17:20:14.983Z,29.0733
2023-04-18T17:21:15.663Z,29.0353
2023-04-18T17:22:17.277Z,29.0193
2023-04-18T17:23:18.977Z,28.9821
2023-04-18T17:24:20.648Z,28.9389
2023-04-18T17:25:22.481Z,28.9096
2023-04-18T17:26:23.917Z,28.8749
2023-04-18T17:27:25.571Z,28.8498
2023-04-18T17:28:27.217Z,28.8202
2023-04-18T17:29:28.879Z,28.7798
2023-04-18T17:30:30.970Z,28.7241
2023-04-18T17:31:32.262Z,28.6881
2023-04-18T17:32:33.908Z,28.6631
2023-04-18T17:33:36.406Z,28.6226
2023-04-18T17:34:37.165Z,28.5951
2023-04-18T17:35:38.797Z,28.5450
2023-04-18T17:36:40.416Z,28.4862
2023-04-18T17:37:42.106Z,28.4529
2023-04-18T17:38:43.764Z,28.4215
2023-04-18T17:39:45.341Z,28.3615
2023-04-18T17:40:47.486Z,28.3100
2023-04-18T17:41:48.573Z,28.2664
2023-04-18T17:42:50.327Z,28.2186
2023-04-18T17:43:51.946Z,28.1814
2023-04-18T17:44:53.651Z,28.1403
2023-04-18T17:45:55.318Z,28.0943
2023-04-18T17:46:56.978Z,28.0651
2023-04-18T17:47:58.793Z,28.0154
2023-04-18T17:49:00.553Z,27.9834
2023-04-18T17:50:02.024Z,27.9267
2023-04-18T17:51:03.685Z,27.8838
2023-04-18T17:52:05.645Z,27.8382
2023-04-18T17:53:06.936Z,27.8057
2023-04-18T17:54:08.686Z,27.7572
2023-04-18T17:55:10.358Z,27.7221
2023-04-18T17:56:12.102Z,27.6870
2023-04-18T17:57:13.513Z,27.6549
2023-04-18T17:58:15.291Z,27.6268
2023-04-18T17:59:16.970Z,27.5988
2023-04-18T18:00:18.534Z,27.5637
2023-04-18T18:01:20.182Z,27.5311
2023-04-18T18:02:23.243Z,27.4974
2023-04-18T18:03:23.417Z,27.4485
2023-04-18T18:04:28.180Z,27.3957
2023-04-18T18:05:26.684Z,27.3341
2023-04-18T18:06:28.367Z,27.2885
2023-04-18T18:07:29.977Z,27.2190
2023-04-18T18:08:31.618Z,27.1615
2023-04-18T18:09:33.198Z,27.1147
2023-04-18T18:10:34.954Z,27.0631
2023-04-18T18:11:36.658Z,27.0364
2023-04-18T18:12:38.204Z,26.9997
2023-04-18T18:13:39.782Z,26.9545
2023-04-18T18:14:41.505Z,26.9216
2023-04-18T18:15:43.216Z,26.8920
2023-04-18T18:16:44.866Z,26.8705
2023-04-18T18:17:46.494Z,26.8470
2023-04-18T18:18:48.074Z,26.8132
2023-04-18T18:19:49.734Z,26.7879
2023-04-18T18:20:51.370Z,26.7470
2023-04-18T18:21:53.089Z,26.6987
2023-04-18T18:22:54.662Z,26.6624
2023-04-18T18:23:56.324Z,26.6106
2023-04-18T18:24:57.969Z,26.5603
2023-04-18T18:25:59.660Z,26.5225
2023-04-18T18:27:01.279Z,26.5042
2023-04-18T18:28:02.903Z,26.4701
2023-04-18T18:29:04.511Z,26.4323
2023-04-18T18:30:06.211Z,26.3849
2023-04-18T18:31:07.908Z,26.3588
2023-04-18T18:32:09.523Z,26.3138
2023-04-18T18:33:11.983Z,26.2758
2023-04-18T18:34:12.771Z,26.2579
2023-04-18T18:35:14.462Z,26.2273
2023-04-18T18:36:16.142Z,26.1848
2023-04-18T18:37:17.704Z,26.1521
2023-04-18T18:38:19.359Z,26.1150
2023-04-18T18:39:21.094Z,26.0829
2023-04-18T18:40:22.682Z,26.0490
2023-04-18T18:41:24.646Z,26.0254
2023-04-18T18:42:25.968Z,25.9763
2023-04-18T18:43:27.593Z,25.9383
2023-04-18T18:44:29.204Z,25.8993
2023-04-18T18:45:30.887Z,25.8744
2023-04-18T18:46:32.685Z,25.8364
2023-04-18T18:47:34.922Z,25.7943
2023-04-18T18:48:35.816Z,25.7543
2023-04-18T18:49:37.483Z,25.7341
2023-04-18T18:50:39.133Z,25.7237
2023-04-18T18:51:40.853Z,25.7085
2023-04-18T18:52:42.435Z,25.6846
2023-04-18T18:53:45.160Z,25.6592
2023-04-18T18:54:45.716Z,25.6337
2023-04-18T18:55:47.290Z,25.6082
2023-04-18T18:56:49.024Z,25.5795
2023-04-18T18:57:50.694Z,25.5482
2023-04-18T18:58:52.439Z,25.5162
2023-04-18T18:59:55.721Z,25.4815
2023-04-18T19:00:55.575Z,25.4338
2023-04-18T19:01:57.292Z,25.3874
2023-04-18T19:02:59.713Z,25.3646
2023-04-18T19:04:00.710Z,25.3496
2023-04-18T19:05:02.317Z,25.3054
2023-04-18T19:06:03.728Z,25.2929
2023-04-18T19:07:05.449Z,25.2713
2023-04-18T19:08:07.197Z,25.2553
2023-04-18T19:09:08.757Z,25.2262
2023-04-18T19:10:10.370Z,25.1849
2023-04-18T19:11:12.016Z,25.1514
2023-04-18T19:12:13.738Z,25.1290
2023-04-18T19:13:15.397Z,25.0902
2023-04-18T19:14:17.019Z,25.0602
2023-04-18T19:15:18.567Z,25.0353
2023-04-18T19:16:20.347Z,25.0195
2023-04-18T19:17:22.037Z,25.0053
2023-04-18T19:18:23.631Z,24.9836
2023-04-18T19:19:25.136Z,24.9554
2023-04-18T19:20:28.721Z,24.9125
2023-04-18T19:21:28.513Z,24.8790
2023-04-18T19:22:30.230Z,24.8593
2023-04-18T19:23:32.096Z,24.8186
2023-04-18T19:24:33.448Z,24.7942
2023-04-18T19:25:35.048Z,24.7691
2023-04-18T19:26:36.727Z,24.7547
2023-04-18T19:27:38.414Z,24.7393
2023-04-18T19:28:40.156Z,24.6958
2023-04-18T19:29:41.679Z,24.6582
2023-04-18T19:30:43.314Z,24.6434
2023-04-18T19:31:44.942Z,24.6126
2023-04-18T19:32:46.695Z,24.5894
2023-04-18T19:33:48.327Z,24.5693
2023-04-18T19:34:49.905Z,24.5526
2023-04-18T19:35:51.610Z,24.5372
2023-04-18T19:36:53.237Z,24.5082
2023-04-18T19:37:54.911Z,24.4854
2023-04-18T19:38:56.611Z,24.4600
2023-04-18T19:39:58.216Z,24.4364
2023-04-18T19:40:59.803Z,24.4103
2023-04-18T19:42:01.400Z,24.3832
2023-04-18T19:43:03.619Z,24.3571
2023-04-18T19:44:04.773Z,24.3269
2023-04-18T19:45:06.432Z,24.3033
2023-04-18T19:46:08.199Z,24.2763
2023-04-18T19:47:09.717Z,24.2626
2023-04-18T19:48:11.404Z,24.2461
2023-04-18T19:49:13.308Z,24.2295
2023-04-18T19:50:14.723Z,24.2069
2023-04-18T19:51:16.272Z,24.1911
2023-04-18T19:52:18.007Z,24.1710
2023-04-18T19:53:20.301Z,24.1473
2023-04-18T19:54:21.972Z,24.1305
2023-04-18T19:55:23.024Z,24.1022
2023-04-18T19:56:24.532Z,24.0777
2023-04-18T19:57:26.256Z,24.0539
2023-04-18T19:58:27.819Z,24.0286
2023-04-18T19:59:29.515Z,24.0046
2023-04-18T20:00:31.134Z,23.9736
2023-04-18T20:01:32.854Z,23.9586
2023-04-18T20:02:34.640Z,23.9204
2023-04-18T20:03:36.276Z,23.9124
2023-04-18T20:04:37.985Z,23.8986
2023-04-18T20:05:39.409Z,23.8668
2023-04-18T20:06:41.009Z,23.8491
2023-04-18T20:07:42.676Z,23.8240
2023-04-18T20:08:44.326Z,23.8066
2023-04-18T20:09:45.957Z,23.7807
2023-04-18T20:10:47.601Z,23.7567
2023-04-18T20:11:49.261Z,23.7417
2023-04-18T20:12:50.843Z,23.7256
2023-04-18T20:13:52.598Z,23.7121
2023-04-18T20:14:54.175Z,23.6874
2023-04-18T20:15:55.834Z,23.6654
2023-04-18T20:16:57.568Z,23.6426
2023-04-18T20:17:59.256Z,23.6258
2023-04-18T20:19:00.803Z,23.6077
2023-04-18T20:20:02.380Z,23.5944
2023-04-18T20:21:04.087Z,23.5730
2023-04-18T20:22:05.697Z,23.5560
2023-04-18T20:23:07.309Z,23.5360
2023-04-18T20:24:09.026Z,23.5095
2023-04-18T20:25:10.653Z,23.4878
2023-04-18T20:26:13.094Z,23.4711
2023-04-18T20:27:13.890Z,23.4436
2023-04-18T20:28:15.581Z,23.4307
2023-04-18T20:29:17.285Z,23.4138
2023-04-18T20:30:18.856Z,23.4023
2023-04-18T20:31:20.574Z,23.3756
2023-04-18T20:32:22.139Z,23.3575
2023-04-18T20:33:23.825Z,23.3407
2023-04-18T20:34:25.506Z,23.3290
2023-04-18T20:35:27.163Z,23.3158
2023-04-18T20:36:28.777Z,23.2815
2023-04-18T20:37:30.445Z,23.2668
2023-04-18T20:38:32.092Z,23.2643
2023-04-18T20:39:33.776Z,23.2485
2023-04-18T20:40:35.354Z,23.2431
2023-04-18T20:41:37.022Z,23.2497
2023-04-18T20:42:38.637Z,23.2466
2023-04-18T20:43:40.370Z,23.2476
2023-04-18T20:44:42.074Z,23.2415
2023-04-18T20:45:43.650Z,23.2394
2023-04-18T20:46:45.274Z,23.2316
2023-04-18T20:47:46.957Z,23.2094
2023-04-18T20:48:48.510Z,23.1875
2023-04-18T20:49:50.165Z,23.1723
2023-04-18T20:50:51.947Z,23.1655
2023-04-18T20:51:53.424Z,23.1312
2023-04-18T20:52:55.162Z,23.1223
2023-04-18T20:53:56.716Z,23.1162
2023-04-18T20:54:58.477Z,23.1147
2023-04-18T20:56:00.086Z,23.1104
2023-04-18T20:57:01.719Z,23.1119
2023-04-18T20:58:03.335Z,23.0993
2023-04-18T20:59:05.068Z,23.0991
2023-04-18T21:00:06.685Z,23.0811
2023-04-18T21:01:08.356Z,23.0679
2023-04-18T21:02:10.089Z,23.0387
2023-04-18T21:03:11.750Z,23.0301
2023-04-18T21:04:13.680Z,23.0049
2023-04-18T21:05:14.971Z,23.0116
2023-04-18T21:06:16.506Z,23.0139
2023-04-18T21:07:18.199Z,23.0301
2023-04-18T21:08:19.820Z,23.0301
2023-04-18T21:09:21.488Z,23.0316
2023-04-18T21:10:23.161Z,23.0398
2023-04-18T21:11:24.790Z,23.0449
2023-04-18T21:12:26.351Z,23.0429
2023-04-18T21:13:28.083Z,23.0301
2023-04-18T21:14:29.681Z,23.0059
2023-04-18T21:15:31.401Z,22.9975
2023-04-18T21:16:33.141Z,22.9755
2023-04-18T21:17:34.692Z,22.9636
2023-04-18T21:18:36.541Z,22.9523
2023-04-18T21:19:37.977Z,22.9533
2023-04-18T21:20:39.672Z,22.9703
2023-04-18T21:21:41.259Z,22.9784
2023-04-18T21:22:42.911Z,22.9890
2023-04-18T21:23:44.542Z,22.9919
2023-04-18T21:24:46.190Z,22.9981
2023-04-18T21:25:47.903Z,22.9796
2023-04-18T21:26:49.441Z,22.9825
2023-04-18T21:27:51.149Z,22.9654
2023-04-18T21:28:52.755Z,22.9467
2023-04-18T21:29:54.440Z,22.9196
2023-04-18T21:30:56.164Z,22.9085
2023-04-18T21:31:57.785Z,22.9118
2023-04-18T21:32:59.377Z,22.9083
2023-04-18T21:34:01.068Z,22.9128
2023-04-18T21:35:03.605Z,22.9186
2023-04-18T21:36:04.353Z,22.9402
2023-04-18T21:37:05.962Z,22.9455
2023-04-18T21:38:07.538Z,22.9506
2023-04-18T21:39:09.241Z,22.9412
2023-04-18T21:40:10.952Z,22.9426
2023-04-18T21:41:12.612Z,22.9323
2023-04-18T21:42:14.110Z,22.9213
2023-04-18T21:43:15.841Z,22.8933
2023-04-18T21:44:17.477Z,22.8808
2023-04-18T21:45:19.194Z,22.8746
2023-04-18T21:46:24.220Z,22.8726
2023-04-18T21:47:22.402Z,22.8742
2023-04-18T21:48:24.013Z,22.8754
2023-04-18T21:49:25.643Z,22.8943
2023-04-18T21:50:27.306Z,22.9239
2023-04-18T21:51:29.113Z,22.9402
2023-04-18T21:52:30.597Z,22.9445
2023-04-18T21:53:32.259Z,22.9328
2023-04-18T21:54:33.881Z,22.9225
2023-04-18T21:55:35.561Z,22.9007
2023-04-18T21:56:37.224Z,22.8921
2023-04-18T21:57:38.826Z,22.8859
2023-04-18T21:58:40.453Z,22.8722
2023-04-18T21:59:42.209Z,22.8520
2023-04-18T22:00:43.846Z,22.8670
2023-04-18T22:01:45.449Z,22.8689
2023-04-18T22:02:47.313Z,22.8798
2023-04-18T22:03:48.888Z,22.8890
2023-04-18T22:04:50.332Z,22.8900
2023-04-18T22:05:52.548Z,22.8869
2023-04-18T22:06:53.682Z,22.8808
2023-04-18T22:07:58.458Z,22.8705
2023-04-18T22:08:56.928Z,22.8555
2023-04-18T22:09:58.606Z,22.8489
2023-04-18T22:11:01.142Z,22.8405
2023-04-18T22:12:01.958Z,22.8414
2023-04-18T22:13:03.601Z,22.8426
2023-04-18T22:14:05.216Z,22.8633
2023-04-18T22:15:06.817Z,22.8818
2023-04-18T22:16:09.101Z,22.9021
2023-04-18T22:17:10.180Z,22.9137
2023-04-18T22:18:11.792Z,22.9017
2023-04-18T22:19:13.410Z,22.8806
2023-04-18T22:20:15.079Z,22.8635
2023-04-18T22:21:16.734Z,22.8414
2023-04-18T22:22:18.408Z,22.8005
2023-04-18T22:23:20.050Z,22.7916
2023-04-18T22:24:21.802Z,22.7869
2023-04-18T22:25:23.322Z,22.8029
2023-04-18T22:26:25.006Z,22.8251
2023-04-18T22:27:27.122Z,22.8512
2023-04-18T22:28:28.291Z,22.8658
2023-04-18T22:29:29.895Z,22.8777
2023-04-18T22:30:31.686Z,22.8767
2023-04-18T22:31:34.061Z,22.8590
2023-04-18T22:32:34.938Z,22.8360
2023-04-18T22:33:36.532Z,22.8124
2023-04-18T22:34:38.104Z,22.8029
2023-04-18T22:35:39.807Z,22.7980
2023-04-18T22:36:41.439Z,22.7962
2023-04-18T22:37:43.599Z,22.8134
2023-04-18T22:38:44.754Z,22.8401
2023-04-18T22:39:46.375Z,22.8510
2023-04-18T22:40:48.007Z,22.8674
2023-04-18T22:41:49.722Z,22.8783
2023-04-18T22:42:51.336Z,22.8808
2023-04-18T22:43:52.992Z,22.8818
2023-04-18T22:44:54.633Z,22.8635
2023-04-18T22:45:56.353Z,22.8455
2023-04-18T22:46:57.974Z,22.8243
2023-04-18T22:48:00.628Z,22.7972
2023-04-18T22:49:01.360Z,22.7900
2023-04-18T22:50:03.090Z,22.7921
2023-04-18T22:51:04.686Z,22.8077
2023-04-18T22:52:06.342Z,22.8319
2023-04-18T22:53:08.082Z,22.8568
2023-04-18T22:54:09.649Z,22.8818
2023-04-18T22:55:11.369Z,22.8911
2023-04-18T22:56:12.922Z,22.9040
2023-04-18T22:57:15.275Z,22.9174
2023-04-18T22:58:16.296Z,22.9083
2023-04-18T22:59:18.791Z,22.8962
2023-04-18T23:00:19.527Z,22.8617
2023-04-18T23:01:23.016Z,22.8487
2023-04-18T23:02:23.005Z,22.8432
2023-04-18T23:03:24.893Z,22.8459
2023-04-18T23:04:26.267Z,22.8446
2023-04-18T23:05:27.763Z,22.8590
2023-04-18T23:06:29.392Z,22.8703
2023-04-18T23:07:30.959Z,22.8890
2023-04-18T23:08:32.718Z,22.8982
2023-04-18T23:09:34.264Z,22.8993
2023-04-18T23:10:35.972Z,22.8911
2023-04-18T23:11:37.589Z,22.8734
2023-04-18T23:12:39.276Z,22.8522
2023-04-18T23:13:40.966Z,22.8255
2023-04-18T23:14:42.573Z,22.8114
2023-04-18T23:15:44.182Z,22.8097
2023-04-18T23:16:45.882Z,22.8099